Mambo — WDF9146 — position and weather

sailwx.info

Track history (hours):
 
Tides and Currents Weather Stations Pressure Air Temp Water Temp Dewpoint Dewpoint Depression Visibility Wind Speed Wind Dir Waves Ship Positions

Mambo

Owner: Souto marine holdings, Coconut grove, FL. More information available from US FCC via Universal Licensing System and Coast Guard Vessel Documentation Center.

Last reported at 2018-Apr-08 13:03 UTC. Time now 2018-Apr-24 14:43 UTC.
Position N 25°44' W 079°46'.
Warning: this ship's position is 16 days out of date.

Length 33 m; draft 2.2 m.

Type: Pleasure craft. MMSI: 338405000.

Date/timePositionNaut miles runAvg speedWind from/ knotsBaromVisibWave heightAir tempDewpointWater temp
2018-Apr-08 13:03N 25°44' W 079°46'120.4
2018-Apr-08 13:01N 25°43' W 079°47'1020.9
2018-Apr-08 12:30N 25°41' W 079°58'1018.9
2018-Apr-08 12:00N 25°39' W 080°08'5 9.2
2018-Apr-08 11:30N 25°41' W 080°13'2 4.4
2018-Apr-08 11:00N 25°42' W 080°15'0 0.0
2018-Apr-08 10:30N 25°42' W 080°15'  
2018-Apr-01 18:28N 25°42' W 080°15'3 5.4
2018-Apr-01 17:59N 25°42' W 080°12'4 8.6
2018-Apr-01 17:30N 25°46' W 080°11'2 4.8
2018-Apr-01 17:00N 25°45' W 080°08'0 0.0
2018-Apr-01 16:30N 25°45' W 080°08'0 0.0
2018-Apr-01 16:00N 25°45' W 080°08'0 0.0
2018-Apr-01 15:30N 25°45' W 080°08'0 0.0
2018-Apr-01 15:00N 25°45' W 080°08'0 0.0
2018-Apr-01 14:30N 25°45' W 080°08'0 0.0
2018-Apr-01 14:00N 25°45' W 080°08'0 0.0
2018-Apr-01 13:30N 25°45' W 080°08'0 0.0
2018-Apr-01 13:00N 25°45' W 080°08'0 0.0
2018-Apr-01 12:30N 25°45' W 080°08'0 0.0
2018-Apr-01 12:00N 25°45' W 080°08'0 0.0
2018-Apr-01 11:30N 25°45' W 080°08'0 0.0
2018-Apr-01 11:00N 25°45' W 080°08'0 0.0
2018-Apr-01 10:30N 25°45' W 080°08'0 0.0
2018-Apr-01 10:00N 25°45' W 080°08'0 0.0
2018-Apr-01 09:30N 25°45' W 080°08'0 0.0
2018-Apr-01 09:00N 25°45' W 080°08'0 0.0
2018-Apr-01 08:30N 25°45' W 080°08'0 0.0
2018-Apr-01 08:00N 25°45' W 080°08'0 0.0
2018-Apr-01 07:30N 25°45' W 080°08'0 0.0
2018-Apr-01 07:00N 25°45' W 080°08'0 0.0
2018-Apr-01 06:30N 25°45' W 080°08'0 0.0
2018-Apr-01 06:00N 25°45' W 080°08'0 0.0
2018-Apr-01 05:30N 25°45' W 080°08'0 0.0
2018-Apr-01 05:00N 25°45' W 080°08'0 0.0
2018-Apr-01 04:30N 25°45' W 080°08'0 0.0
2018-Apr-01 04:00N 25°45' W 080°08'0 0.0
2018-Apr-01 03:30N 25°45' W 080°08'0 0.0
2018-Apr-01 03:00N 25°45' W 080°08'0 0.0
2018-Apr-01 02:30N 25°45' W 080°08'0 0.0
2018-Apr-01 02:00N 25°45' W 080°08'0 0.0
2018-Apr-01 01:30N 25°45' W 080°08'0 0.0
2018-Apr-01 01:00N 25°45' W 080°08'0 0.0
2018-Apr-01 00:30N 25°45' W 080°08'0 0.0
2018-Apr-01 00:00N 25°45' W 080°08'0 0.0
2018-Mar-31 23:30N 25°45' W 080°08'0 0.0
2018-Mar-31 23:00N 25°45' W 080°08'0 0.0
2018-Mar-31 22:30N 25°45' W 080°08'0 0.0
2018-Mar-31 22:00N 25°45' W 080°08'0 0.0
2018-Mar-31 21:30N 25°45' W 080°08'0 0.0
2018-Mar-31 21:00N 25°45' W 080°08'0 0.0
2018-Mar-31 20:30N 25°45' W 080°08'0 0.0
2018-Mar-31 19:59N 25°45' W 080°08'0 0.0
2018-Mar-31 19:30N 25°45' W 080°08'0 0.0
2018-Mar-31 19:00N 25°45' W 080°08'0 0.0
2018-Mar-31 18:30N 25°45' W 080°08'0 0.0
2018-Mar-31 18:00N 25°45' W 080°08'0 0.0
2018-Mar-31 17:30N 25°45' W 080°08'0 0.0
2018-Mar-31 17:00N 25°45' W 080°08'0 0.0
2018-Mar-31 16:30N 25°45' W 080°08'0 0.0
2018-Mar-30 17:05N 25°45' W 080°08'0 0.1
2018-Mar-30 17:00N 25°45' W 080°08'2 4.8
2018-Mar-30 16:30N 25°45' W 080°11'4 8.5
2018-Mar-30 15:59N 25°41' W 080°13'  
Track history (hours):
 
Tides and Currents Weather Stations Pressure Air Temp Water Temp Dewpoint Dewpoint Depression Visibility Wind Speed Wind Dir Waves Ship Positions

Mambo

Owner: Souto marine holdings, Coconut grove, FL. More information available from US FCC via Universal Licensing System and Coast Guard Vessel Documentation Center.

Last reported at 2018-Apr-08 13:03 UTC. Time now 2018-Apr-24 14:43 UTC.
Position N 25°44' W 079°46'.
Warning: this ship's position is 16 days out of date.

Length 33 m; draft 2.2 m.

Type: Pleasure craft. MMSI: 338405000.

Date/timePositionNaut miles runAvg speedWind from/ knotsBaromVisibWave heightAir tempDewpointWater temp
2018-Apr-08 13:03N 25°44' W 079°46'120.4
2018-Apr-08 13:01N 25°43' W 079°47'1020.9
2018-Apr-08 12:30N 25°41' W 079°58'1018.9
2018-Apr-08 12:00N 25°39' W 080°08'5 9.2
2018-Apr-08 11:30N 25°41' W 080°13'2 4.4
2018-Apr-08 11:00N 25°42' W 080°15'0 0.0
2018-Apr-08 10:30N 25°42' W 080°15'  
2018-Apr-01 18:28N 25°42' W 080°15'3 5.4
2018-Apr-01 17:59N 25°42' W 080°12'4 8.6
2018-Apr-01 17:30N 25°46' W 080°11'2 4.8
2018-Apr-01 17:00N 25°45' W 080°08'0 0.0
2018-Apr-01 16:30N 25°45' W 080°08'0 0.0
2018-Apr-01 16:00N 25°45' W 080°08'0 0.0
2018-Apr-01 15:30N 25°45' W 080°08'0 0.0
2018-Apr-01 15:00N 25°45' W 080°08'0 0.0
2018-Apr-01 14:30N 25°45' W 080°08'0 0.0
2018-Apr-01 14:00N 25°45' W 080°08'0 0.0
2018-Apr-01 13:30N 25°45' W 080°08'0 0.0
2018-Apr-01 13:00N 25°45' W 080°08'0 0.0
2018-Apr-01 12:30N 25°45' W 080°08'0 0.0
2018-Apr-01 12:00N 25°45' W 080°08'0 0.0
2018-Apr-01 11:30N 25°45' W 080°08'0 0.0
2018-Apr-01 11:00N 25°45' W 080°08'0 0.0
2018-Apr-01 10:30N 25°45' W 080°08'0 0.0
2018-Apr-01 10:00N 25°45' W 080°08'0 0.0
2018-Apr-01 09:30N 25°45' W 080°08'0 0.0
2018-Apr-01 09:00N 25°45' W 080°08'0 0.0
2018-Apr-01 08:30N 25°45' W 080°08'0 0.0
2018-Apr-01 08:00N 25°45' W 080°08'0 0.0
2018-Apr-01 07:30N 25°45' W 080°08'0 0.0
2018-Apr-01 07:00N 25°45' W 080°08'0 0.0
2018-Apr-01 06:30N 25°45' W 080°08'0 0.0
2018-Apr-01 06:00N 25°45' W 080°08'0 0.0
2018-Apr-01 05:30N 25°45' W 080°08'0 0.0
2018-Apr-01 05:00N 25°45' W 080°08'0 0.0
2018-Apr-01 04:30N 25°45' W 080°08'0 0.0
2018-Apr-01 04:00N 25°45' W 080°08'0 0.0
2018-Apr-01 03:30N 25°45' W 080°08'0 0.0
2018-Apr-01 03:00N 25°45' W 080°08'0 0.0
2018-Apr-01 02:30N 25°45' W 080°08'0 0.0
2018-Apr-01 02:00N 25°45' W 080°08'0 0.0
2018-Apr-01 01:30N 25°45' W 080°08'0 0.0
2018-Apr-01 01:00N 25°45' W 080°08'0 0.0
2018-Apr-01 00:30N 25°45' W 080°08'0 0.0
2018-Apr-01 00:00N 25°45' W 080°08'0 0.0
2018-Mar-31 23:30N 25°45' W 080°08'0 0.0
2018-Mar-31 23:00N 25°45' W 080°08'0 0.0
2018-Mar-31 22:30N 25°45' W 080°08'0 0.0
2018-Mar-31 22:00N 25°45' W 080°08'0 0.0
2018-Mar-31 21:30N 25°45' W 080°08'0 0.0
2018-Mar-31 21:00N 25°45' W 080°08'0 0.0
2018-Mar-31 20:30N 25°45' W 080°08'0 0.0
2018-Mar-31 19:59N 25°45' W 080°08'0 0.0
2018-Mar-31 19:30N 25°45' W 080°08'0 0.0
2018-Mar-31 19:00N 25°45' W 080°08'0 0.0
2018-Mar-31 18:30N 25°45' W 080°08'0 0.0
2018-Mar-31 18:00N 25°45' W 080°08'0 0.0
2018-Mar-31 17:30N 25°45' W 080°08'0 0.0
2018-Mar-31 17:00N 25°45' W 080°08'0 0.0
2018-Mar-31 16:30N 25°45' W 080°08'0 0.0
2018-Mar-30 17:05N 25°45' W 080°08'0 0.1
2018-Mar-30 17:00N 25°45' W 080°08'2 4.8
2018-Mar-30 16:30N 25°45' W 080°11'4 8.5
2018-Mar-30 15:59N 25°41' W 080°13'  

Dump ship's entire track history